createdAt,value
2022-08-30T00:01:56.357Z,22.18
2022-08-30T00:04:30.429Z,22.23
2022-08-30T00:06:58.111Z,22.37
2022-08-30T00:09:25.747Z,22.41
2022-08-30T00:11:53.366Z,22.39
2022-08-30T00:14:21.486Z,22.38
2022-08-30T00:16:50.099Z,22.40
2022-08-30T00:19:18.192Z,22.20
2022-08-30T00:21:49.516Z,21.92
2022-08-30T00:24:17.245Z,21.89
2022-08-30T00:26:45.124Z,21.92
2022-08-30T00:29:13.058Z,21.91
2022-08-30T00:31:40.786Z,21.98
2022-08-30T00:34:08.498Z,22.10
2022-08-30T00:36:39.336Z,22.13
2022-08-30T00:39:08.357Z,22.20
2022-08-30T00:41:37.284Z,22.19
2022-08-30T00:44:05.354Z,22.31
2022-08-30T00:46:33.820Z,22.30
2022-08-30T00:51:29.084Z,22.25
2022-08-30T00:53:56.866Z,22.23
2022-08-30T00:56:28.721Z,22.20
2022-08-30T00:58:57.162Z,22.20
2022-08-30T01:01:24.968Z,22.20
2022-08-30T01:03:55.542Z,22.24
2022-08-30T01:06:23.295Z,22.15
2022-08-30T01:08:51.515Z,21.58
2022-08-30T01:11:24.243Z,21.94
2022-08-30T01:13:54.004Z,21.95
2022-08-30T01:16:22.306Z,21.48
2022-08-30T01:18:50.600Z,21.58
2022-08-30T01:21:19.457Z,21.80
2022-08-30T01:23:50.387Z,21.99
2022-08-30T01:26:22.033Z,21.95
2022-08-30T01:28:52.998Z,22.04
2022-08-30T01:31:20.817Z,22.03
2022-08-30T01:33:51.100Z,22.05
2022-08-30T01:36:21.798Z,22.01
2022-08-30T01:38:52.970Z,22.06
2022-08-30T01:41:21.526Z,22.01
2022-08-30T01:43:49.902Z,22.00
2022-08-30T01:46:19.844Z,22.00
2022-08-30T01:48:53.069Z,21.94
2022-08-30T01:51:22.556Z,21.02
2022-08-30T01:53:52.052Z,21.01
2022-08-30T01:56:20.724Z,20.81
2022-08-30T01:58:48.523Z,21.38
2022-08-30T02:01:17.170Z,21.05
2022-08-30T02:03:45.508Z,21.11
2022-08-30T02:06:13.875Z,21.22
2022-08-30T02:08:48.735Z,21.14
2022-08-30T02:11:20.217Z,21.46
2022-08-30T02:13:49.385Z,21.70
2022-08-30T02:16:17.887Z,21.23
2022-08-30T02:18:48.194Z,21.35
2022-08-30T02:21:16.227Z,21.61
2022-08-30T02:23:44.069Z,21.18
2022-08-30T02:26:12.189Z,20.64
2022-08-30T02:28:42.928Z,20.68
2022-08-30T02:31:19.343Z,20.39
2022-08-30T02:33:48.414Z,20.43
2022-08-30T02:36:16.442Z,20.45
2022-08-30T02:38:44.564Z,20.57
2022-08-30T02:41:14.037Z,20.81
2022-08-30T02:43:43.053Z,20.55
2022-08-30T02:46:13.625Z,20.78
2022-08-30T02:48:41.293Z,20.86
2022-08-30T02:51:11.384Z,20.60
2022-08-30T02:53:39.354Z,20.35
2022-08-30T02:56:07.118Z,20.29
2022-08-30T02:58:37.740Z,20.27
2022-08-30T03:01:07.767Z,20.41
2022-08-30T03:03:35.944Z,20.48
2022-08-30T03:06:05.630Z,20.79
2022-08-30T03:08:38.117Z,20.98
2022-08-30T03:11:09.195Z,20.53
2022-08-30T03:13:37.953Z,20.73
2022-08-30T03:16:10.399Z,20.42
2022-08-30T03:18:38.171Z,20.54
2022-08-30T03:21:10.221Z,20.35
2022-08-30T03:23:38.012Z,20.63
2022-08-30T03:26:06.467Z,20.53
2022-08-30T03:28:34.144Z,20.71
2022-08-30T03:31:02.192Z,20.56
2022-08-30T03:33:31.719Z,20.82
2022-08-30T03:35:59.784Z,20.97
2022-08-30T03:38:28.418Z,21.10
2022-08-30T03:40:56.046Z,21.18
2022-08-30T03:43:26.533Z,20.64
2022-08-30T03:45:54.203Z,20.34
2022-08-30T03:48:26.132Z,20.10
2022-08-30T03:50:55.230Z,20.08
2022-08-30T03:53:28.483Z,19.88
2022-08-30T03:55:57.350Z,20.00
2022-08-30T03:58:27.723Z,19.95
2022-08-30T04:00:55.635Z,19.95
2022-08-30T04:03:26.071Z,20.09
2022-08-30T04:05:55.142Z,20.05
2022-08-30T04:08:22.754Z,19.73
2022-08-30T04:10:51.047Z,19.80
2022-08-30T04:13:19.495Z,19.62
2022-08-30T04:15:49.984Z,19.69
2022-08-30T04:18:18.011Z,19.33
2022-08-30T04:20:45.715Z,19.32
2022-08-30T04:23:15.319Z,19.39
2022-08-30T04:25:44.013Z,19.57
2022-08-30T04:28:12.164Z,19.60
2022-08-30T04:30:40.037Z,19.34
2022-08-30T04:33:09.937Z,19.74
2022-08-30T04:35:38.716Z,20.08
2022-08-30T04:38:06.578Z,20.15
2022-08-30T04:40:36.915Z,20.27
2022-08-30T04:43:07.659Z,20.31
2022-08-30T04:45:35.492Z,19.74
2022-08-30T04:48:03.387Z,19.35
2022-08-30T04:50:31.181Z,19.65
2022-08-30T04:52:58.775Z,19.32
2022-08-30T04:55:26.877Z,19.33
2022-08-30T04:57:56.591Z,19.20
2022-08-30T05:00:25.476Z,19.19
2022-08-30T05:02:53.243Z,19.55
2022-08-30T05:05:38.597Z,19.43
2022-08-30T05:08:10.716Z,19.44
2022-08-30T05:10:39.208Z,19.46
2022-08-30T05:13:08.744Z,19.38
2022-08-30T05:15:39.476Z,19.27
2022-08-30T05:18:07.955Z,19.51
2022-08-30T05:20:39.985Z,19.59
2022-08-30T05:23:07.718Z,19.77
2022-08-30T05:25:37.377Z,18.77
2022-08-30T05:28:07.296Z,20.09
2022-08-30T05:30:38.461Z,20.10
2022-08-30T05:33:07.743Z,20.28
2022-08-30T05:35:35.492Z,20.22
2022-08-30T05:38:03.414Z,20.03
2022-08-30T05:40:32.023Z,20.23
2022-08-30T05:43:00.611Z,20.95
2022-08-30T05:45:29.382Z,20.88
2022-08-30T05:47:59.174Z,20.70
2022-08-30T05:50:27.115Z,21.18
2022-08-30T05:52:59.849Z,20.96
2022-08-30T05:55:27.962Z,20.77
2022-08-30T05:57:58.364Z,20.86
2022-08-30T06:00:29.327Z,20.48
2022-08-30T06:02:58.877Z,20.67
2022-08-30T06:05:26.578Z,20.97
2022-08-30T06:07:58.205Z,20.46
2022-08-30T06:10:26.170Z,20.51
2022-08-30T06:12:53.777Z,20.40
2022-08-30T06:15:21.520Z,20.39
2022-08-30T06:17:49.538Z,20.96
2022-08-30T06:20:20.293Z,21.30
2022-08-30T06:22:48.013Z,21.51
2022-08-30T06:25:19.114Z,21.51
2022-08-30T06:27:56.699Z,22.09
2022-08-30T06:30:33.516Z,22.18
2022-08-30T06:33:02.679Z,22.22
2022-08-30T06:35:38.245Z,22.27
2022-08-30T06:38:09.953Z,22.42
2022-08-30T06:40:45.819Z,21.22
2022-08-30T06:43:13.775Z,22.89
2022-08-30T06:45:41.724Z,22.99
2022-08-30T06:48:09.534Z,22.96
2022-08-30T06:50:42.183Z,22.93
2022-08-30T06:53:09.905Z,23.10
2022-08-30T06:55:40.074Z,22.13
2022-08-30T06:58:07.845Z,23.22
2022-08-30T07:00:35.637Z,23.09
2022-08-30T07:03:04.771Z,22.90
2022-08-30T07:05:36.467Z,23.10
2022-08-30T07:08:09.312Z,22.98
2022-08-30T07:10:40.901Z,23.13
2022-08-30T07:13:11.654Z,23.26
2022-08-30T07:15:41.275Z,23.61
2022-08-30T07:18:26.211Z,23.88
2022-08-30T07:20:54.538Z,24.23
2022-08-30T07:23:24.166Z,23.94
2022-08-30T07:25:51.941Z,24.17
2022-08-30T07:28:21.795Z,23.95
2022-08-30T07:30:49.460Z,24.06
2022-08-30T07:33:17.342Z,23.95
2022-08-30T07:35:48.708Z,23.95
2022-08-30T07:38:20.005Z,24.05
2022-08-30T07:40:49.674Z,24.24
2022-08-30T07:43:19.416Z,24.43
2022-08-30T07:45:47.681Z,24.07
2022-08-30T07:48:15.980Z,23.93
2022-08-30T07:50:53.732Z,24.27
2022-08-30T07:53:25.079Z,24.16
2022-08-30T07:55:54.221Z,24.09
2022-08-30T07:58:21.897Z,24.38
2022-08-30T08:00:50.050Z,24.33
2022-08-30T08:03:17.797Z,24.52
2022-08-30T08:05:46.427Z,24.46
2022-08-30T08:08:14.500Z,24.30
2022-08-30T08:10:45.594Z,24.56
2022-08-30T08:13:14.651Z,24.78
2022-08-30T08:15:45.512Z,24.95
2022-08-30T08:18:13.611Z,23.61
2022-08-30T08:20:43.737Z,24.67
2022-08-30T08:23:14.906Z,24.67
2022-08-30T08:25:42.950Z,24.77
2022-08-30T08:28:10.574Z,25.00
2022-08-30T08:30:41.595Z,25.03
2022-08-30T08:33:13.224Z,25.34
2022-08-30T08:35:40.918Z,25.26
2022-08-30T08:38:10.396Z,25.21
2022-08-30T08:40:42.225Z,25.03
2022-08-30T08:43:13.504Z,24.93
2022-08-30T08:45:47.386Z,25.18
2022-08-30T08:48:18.349Z,24.94
2022-08-30T08:51:02.975Z,25.16
2022-08-30T08:53:47.193Z,25.29
2022-08-30T08:56:17.079Z,25.24
2022-08-30T08:58:46.066Z,25.47
2022-08-30T09:01:16.447Z,25.78
2022-08-30T09:03:44.704Z,25.54
2022-08-30T09:06:17.514Z,25.72
2022-08-30T09:08:45.539Z,25.72
2022-08-30T09:11:16.796Z,25.64
2022-08-30T09:13:56.091Z,25.73
2022-08-30T09:16:44.774Z,25.77
2022-08-30T09:19:14.582Z,25.80
2022-08-30T09:21:42.248Z,25.88
2022-08-30T09:24:12.169Z,26.07
2022-08-30T09:26:44.185Z,25.92
2022-08-30T09:29:17.040Z,25.90
2022-08-30T09:31:47.713Z,26.05
2022-08-30T09:34:20.312Z,26.37
2022-08-30T09:36:49.968Z,26.43
2022-08-30T09:39:20.257Z,26.47
2022-08-30T09:41:50.830Z,26.41
2022-08-30T09:44:24.275Z,26.13
2022-08-30T09:46:53.481Z,26.49
2022-08-30T09:49:43.266Z,26.40
2022-08-30T09:52:19.921Z,26.50
2022-08-30T09:54:50.349Z,26.46
2022-08-30T09:57:19.726Z,26.38
2022-08-30T10:00:04.240Z,26.47
2022-08-30T10:02:38.669Z,26.40
2022-08-30T10:05:12.803Z,26.68
2022-08-30T10:07:42.846Z,26.29
2022-08-30T10:10:12.955Z,26.30
2022-08-30T10:12:42.298Z,26.36
2022-08-30T10:15:11.679Z,26.56
2022-08-30T10:17:43.547Z,26.62
2022-08-30T10:20:37.667Z,26.71
2022-08-30T10:23:10.512Z,27.09
2022-08-30T10:25:41.031Z,26.68
2022-08-30T10:28:11.614Z,26.77
2022-08-30T10:30:41.962Z,27.04
2022-08-30T10:33:13.759Z,27.22
2022-08-30T10:35:43.933Z,27.48
2022-08-30T10:38:16.716Z,27.58
2022-08-30T10:41:03.465Z,27.24
2022-08-30T10:43:33.630Z,27.14
2022-08-30T10:46:05.131Z,27.28
2022-08-30T10:48:34.427Z,27.65
2022-08-30T10:51:04.307Z,27.96
2022-08-30T10:53:34.535Z,27.59
2022-08-30T10:56:07.983Z,27.92
2022-08-30T10:58:38.937Z,27.86
2022-08-30T11:01:19.337Z,27.98
2022-08-30T11:03:59.414Z,28.09
2022-08-30T11:06:29.360Z,27.99
2022-08-30T11:09:13.917Z,28.22
2022-08-30T11:11:45.229Z,28.24
2022-08-30T11:14:15.878Z,28.01
2022-08-30T11:16:48.351Z,28.41
2022-08-30T11:19:20.640Z,28.73
2022-08-30T11:21:49.650Z,28.08
2022-08-30T11:24:23.177Z,27.77
2022-08-30T11:26:52.936Z,27.82
2022-08-30T11:29:29.860Z,28.14
2022-08-30T11:31:59.149Z,28.01
2022-08-30T11:34:43.874Z,26.67
2022-08-30T11:37:30.560Z,27.98
2022-08-30T11:40:03.944Z,27.81
2022-08-30T11:42:33.638Z,27.94
2022-08-30T11:45:21.338Z,28.27
2022-08-30T11:47:56.575Z,28.24
2022-08-30T11:50:28.615Z,27.11
2022-08-30T11:52:57.465Z,28.60
2022-08-30T11:55:38.224Z,28.74
2022-08-30T11:58:12.398Z,28.41
2022-08-30T12:00:43.676Z,28.19
2022-08-30T12:03:28.472Z,28.33
2022-08-30T12:05:59.600Z,28.43
2022-08-30T12:09:02.480Z,28.60
2022-08-30T12:12:06.991Z,29.12
2022-08-30T12:14:54.575Z,28.89
2022-08-30T12:17:44.130Z,28.96
2022-08-30T12:20:25.151Z,28.95
2022-08-30T12:22:54.218Z,28.58
2022-08-30T12:25:32.045Z,28.57
2022-08-30T12:28:13.546Z,28.90
2022-08-30T12:30:46.941Z,29.18
2022-08-30T12:33:16.264Z,29.13
2022-08-30T12:35:53.617Z,28.59
2022-08-30T12:38:27.584Z,29.38
2022-08-30T12:40:57.699Z,29.50
2022-08-30T12:43:28.421Z,29.55
2022-08-30T12:46:10.766Z,29.44
2022-08-30T12:48:44.545Z,29.61
2022-08-30T12:51:12.746Z,29.48
2022-08-30T12:53:42.159Z,29.32
2022-08-30T12:56:13.399Z,29.47
2022-08-30T12:58:44.309Z,29.44
2022-08-30T13:01:19.730Z,28.97
2022-08-30T13:04:06.600Z,29.24
2022-08-30T13:06:42.339Z,29.50
2022-08-30T13:09:10.421Z,29.74
2022-08-30T13:11:40.537Z,29.75
2022-08-30T13:14:24.229Z,29.46
2022-08-30T13:17:00.756Z,29.56
2022-08-30T13:19:42.363Z,29.38
2022-08-30T13:22:28.392Z,29.72
2022-08-30T13:24:59.859Z,29.70
2022-08-30T13:27:27.823Z,29.61
2022-08-30T13:30:01.243Z,29.27
2022-08-30T13:32:30.685Z,29.83
2022-08-30T13:34:58.351Z,30.38
2022-08-30T13:37:47.619Z,30.31
2022-08-30T13:40:17.539Z,30.05
2022-08-30T13:42:46.748Z,30.07
2022-08-30T13:48:07.788Z,29.76
2022-08-30T13:50:41.186Z,29.80
2022-08-30T13:53:10.454Z,29.95
2022-08-30T13:55:39.525Z,29.92
2022-08-30T13:58:08.501Z,29.68
2022-08-30T14:00:39.695Z,29.92
2022-08-30T14:03:10.251Z,29.85
2022-08-30T14:08:46.417Z,30.97
2022-08-30T14:11:18.587Z,30.89
2022-08-30T14:16:35.282Z,30.13
2022-08-30T14:19:09.830Z,30.22
2022-08-30T14:21:40.114Z,30.52
2022-08-30T14:24:08.436Z,29.98
2022-08-30T14:26:37.083Z,30.12
2022-08-30T14:29:05.384Z,30.00
2022-08-30T14:31:38.210Z,30.08
2022-08-30T14:34:07.549Z,30.31
2022-08-30T14:36:35.645Z,30.71
2022-08-30T14:39:08.921Z,30.41
2022-08-30T14:41:41.299Z,29.90
2022-08-30T14:44:11.132Z,29.88
2022-08-30T14:46:38.804Z,29.70
2022-08-30T14:49:11.262Z,29.86
2022-08-30T14:51:39.077Z,29.97
2022-08-30T14:54:06.725Z,29.98
2022-08-30T14:56:35.492Z,29.89
2022-08-30T14:59:07.861Z,29.94
2022-08-30T15:01:37.762Z,30.14
2022-08-30T15:04:07.223Z,30.53
2022-08-30T15:06:38.104Z,30.33
2022-08-30T15:09:06.385Z,30.50
2022-08-30T15:11:37.990Z,30.40
2022-08-30T15:14:09.412Z,30.14
2022-08-30T15:16:41.878Z,30.57
2022-08-30T15:19:11.066Z,30.56
2022-08-30T15:21:41.709Z,30.48
2022-08-30T15:24:11.409Z,30.41
2022-08-30T15:26:41.824Z,30.23
2022-08-30T15:29:10.595Z,30.66
2022-08-30T15:31:38.556Z,30.16
2022-08-30T15:34:06.217Z,29.89
2022-08-30T15:36:34.932Z,30.29
2022-08-30T15:39:06.199Z,29.87
2022-08-30T15:41:35.449Z,29.59
2022-08-30T15:44:06.650Z,29.23
2022-08-30T15:46:36.994Z,29.04
2022-08-30T15:49:05.630Z,28.91
2022-08-30T15:51:41.109Z,28.99
2022-08-30T15:54:11.848Z,28.79
2022-08-30T15:56:40.174Z,28.48
2022-08-30T15:59:15.284Z,28.69
2022-08-30T16:01:43.175Z,28.50
2022-08-30T16:04:13.633Z,28.27
2022-08-30T16:06:41.730Z,28.51
2022-08-30T16:09:11.096Z,28.36
2022-08-30T16:11:38.964Z,28.40
2022-08-30T16:14:07.958Z,28.35
2022-08-30T16:16:40.047Z,28.40
2022-08-30T16:19:09.413Z,28.56
2022-08-30T16:21:37.994Z,28.59
2022-08-30T16:24:06.712Z,28.55
2022-08-30T16:26:36.961Z,28.27
2022-08-30T16:29:05.382Z,28.14
2022-08-30T16:31:37.644Z,28.25
2022-08-30T16:34:07.834Z,27.89
2022-08-30T16:36:43.921Z,27.60
2022-08-30T16:39:13.888Z,27.88
2022-08-30T16:41:48.388Z,27.94
2022-08-30T16:44:17.814Z,28.10
2022-08-30T16:46:53.641Z,28.09
2022-08-30T16:49:22.491Z,28.07
2022-08-30T16:51:51.174Z,27.92
2022-08-30T16:54:20.287Z,27.84
2022-08-30T16:56:49.893Z,27.85
2022-08-30T16:59:18.948Z,27.42
2022-08-30T17:01:49.538Z,27.46
2022-08-30T17:04:18.831Z,27.26
2022-08-30T17:06:49.962Z,27.03
2022-08-30T17:09:18.420Z,27.05
2022-08-30T17:11:46.573Z,26.98
2022-08-30T17:14:17.811Z,27.05
2022-08-30T17:16:50.746Z,27.17
2022-08-30T17:19:18.761Z,27.27
2022-08-30T17:21:54.758Z,27.20
2022-08-30T17:24:22.927Z,27.32
2022-08-30T17:26:52.652Z,27.00
2022-08-30T17:29:22.399Z,27.10
2022-08-30T17:31:50.952Z,27.14
2022-08-30T17:34:21.151Z,27.07
2022-08-30T17:36:49.933Z,27.12
2022-08-30T17:39:17.722Z,27.12
2022-08-30T17:41:50.472Z,26.90
2022-08-30T17:44:21.910Z,26.77
2022-08-30T17:46:55.234Z,26.78
2022-08-30T17:49:23.317Z,26.70
2022-08-30T17:51:55.629Z,26.78
2022-08-30T17:54:28.137Z,26.66
2022-08-30T17:56:59.046Z,26.46
2022-08-30T17:59:26.865Z,26.47
2022-08-30T18:02:01.083Z,26.44
2022-08-30T18:04:28.841Z,26.36
2022-08-30T18:06:56.505Z,26.44
2022-08-30T18:09:33.191Z,26.26
2022-08-30T18:12:02.006Z,26.34
2022-08-30T18:14:32.182Z,26.38
2022-08-30T18:17:01.190Z,26.39
2022-08-30T18:19:32.082Z,26.19
2022-08-30T18:22:00.021Z,26.17
2022-08-30T18:24:31.193Z,25.92
2022-08-30T18:26:59.341Z,25.91
2022-08-30T18:29:31.398Z,25.90
2022-08-30T18:32:20.307Z,25.73
2022-08-30T18:34:51.472Z,25.72
2022-08-30T18:37:19.381Z,25.72
2022-08-30T18:39:53.401Z,25.70
2022-08-30T18:42:21.232Z,25.75
2022-08-30T18:44:49.327Z,25.63
2022-08-30T18:47:23.023Z,25.61
2022-08-30T18:49:53.516Z,25.53
2022-08-30T18:52:21.921Z,25.42
2022-08-30T18:54:53.040Z,25.38
2022-08-30T18:57:23.605Z,25.22
2022-08-30T18:59:54.425Z,25.25
2022-08-30T19:02:22.622Z,25.19
2022-08-30T19:05:04.857Z,25.17
2022-08-30T19:07:37.632Z,25.12
2022-08-30T19:10:13.481Z,25.10
2022-08-30T19:12:41.378Z,25.08
2022-08-30T19:15:10.880Z,25.14
2022-08-30T19:17:39.865Z,24.99
2022-08-30T19:20:19.319Z,24.79
2022-08-30T19:23:09.223Z,24.69
2022-08-30T19:25:34.936Z,24.73
2022-08-30T19:28:02.950Z,24.71
2022-08-30T19:30:33.606Z,24.77
2022-08-30T19:33:04.137Z,24.74
2022-08-30T19:35:35.129Z,24.78
2022-08-30T19:38:03.201Z,24.79
2022-08-30T19:40:33.196Z,24.80
2022-08-30T19:43:05.289Z,24.87
2022-08-30T19:48:22.423Z,24.75
2022-08-30T19:50:54.435Z,24.80
2022-08-30T19:53:22.664Z,24.70
2022-08-30T19:55:50.647Z,24.70
2022-08-30T19:58:21.112Z,24.72
2022-08-30T20:00:55.963Z,24.64
2022-08-30T20:03:28.810Z,24.67
2022-08-30T20:06:00.305Z,23.34
2022-08-30T20:08:29.947Z,24.74
2022-08-30T20:10:58.601Z,24.71
2022-08-30T20:13:26.853Z,24.73
2022-08-30T20:15:56.342Z,24.84
2022-08-30T20:18:26.043Z,24.76
2022-08-30T20:20:54.320Z,24.87
2022-08-30T20:23:25.925Z,24.91
2022-08-30T20:25:54.564Z,25.23
2022-08-30T20:28:22.424Z,25.26
2022-08-30T20:30:50.404Z,25.39
2022-08-30T20:33:22.728Z,25.28
2022-08-30T20:35:51.671Z,25.06
2022-08-30T20:38:24.142Z,25.07
2022-08-30T20:40:52.652Z,25.05
2022-08-30T20:43:33.726Z,25.14
2022-08-30T20:46:03.786Z,25.16
2022-08-30T20:48:32.820Z,25.06
2022-08-30T20:51:00.615Z,24.82
2022-08-30T20:53:30.327Z,24.90
2022-08-30T20:55:58.030Z,24.82
2022-08-30T20:58:27.898Z,24.78
2022-08-30T21:00:55.954Z,24.78
2022-08-30T21:03:25.968Z,24.70
2022-08-30T21:05:54.926Z,24.61
2022-08-30T21:08:22.899Z,24.56
2022-08-30T21:10:52.297Z,24.58
2022-08-30T21:13:23.338Z,24.42
2022-08-30T21:15:52.448Z,24.29
2022-08-30T21:18:23.942Z,24.22
2022-08-30T21:20:51.665Z,24.13
2022-08-30T21:23:19.481Z,24.20
2022-08-30T21:25:49.219Z,24.20
2022-08-30T21:28:21.430Z,24.16
2022-08-30T21:30:49.531Z,24.06
2022-08-30T21:33:19.711Z,24.05
2022-08-30T21:36:05.410Z,24.12
2022-08-30T21:38:33.165Z,24.00
2022-08-30T21:41:04.910Z,24.02
2022-08-30T21:43:34.450Z,24.13
2022-08-30T21:46:05.575Z,24.05
2022-08-30T21:48:33.786Z,24.10
2022-08-30T21:51:06.611Z,24.12
2022-08-30T21:53:34.514Z,24.17
2022-08-30T21:56:07.604Z,24.17
2022-08-30T21:58:44.775Z,24.25
2022-08-30T22:01:13.107Z,24.38
2022-08-30T22:03:42.710Z,24.29
2022-08-30T22:06:11.136Z,24.16
2022-08-30T22:08:41.389Z,24.19
2022-08-30T22:11:09.611Z,24.13
2022-08-30T22:13:38.809Z,23.89
2022-08-30T22:16:14.914Z,23.86
2022-08-30T22:18:45.070Z,23.80
2022-08-30T22:21:16.952Z,23.69
2022-08-30T22:23:49.927Z,23.73
2022-08-30T22:26:19.231Z,23.64
2022-08-30T22:28:47.321Z,23.59
2022-08-30T22:31:17.446Z,23.55
2022-08-30T22:33:49.157Z,16.72
2022-08-30T22:36:18.313Z,23.71
2022-08-30T22:38:46.069Z,23.74
2022-08-30T22:41:14.644Z,23.78
2022-08-30T22:43:45.591Z,23.74
2022-08-30T22:46:16.205Z,23.64
2022-08-30T22:48:46.430Z,23.82
2022-08-30T22:51:14.734Z,23.80
2022-08-30T22:53:42.771Z,23.69
2022-08-30T22:56:14.044Z,23.85
2022-08-30T22:58:41.929Z,23.96
2022-08-30T23:01:10.610Z,24.02
2022-08-30T23:03:39.574Z,24.07
2022-08-30T23:06:08.872Z,24.06
2022-08-30T23:08:39.253Z,23.98
2022-08-30T23:11:16.055Z,24.16
2022-08-30T23:13:43.914Z,23.82
2022-08-30T23:16:24.067Z,23.99
2022-08-30T23:18:51.840Z,23.91
2022-08-30T23:21:25.098Z,23.91
2022-08-30T23:24:11.292Z,23.89
2022-08-30T23:27:03.286Z,23.83
2022-08-30T23:29:48.523Z,23.94
2022-08-30T23:32:33.793Z,23.86
2022-08-30T23:35:18.955Z,23.74
2022-08-30T23:38:06.692Z,23.78
2022-08-30T23:40:52.324Z,23.73
2022-08-30T23:43:37.610Z,23.68
2022-08-30T23:46:23.137Z,23.83
2022-08-30T23:49:08.416Z,23.86
2022-08-30T23:51:54.195Z,23.37
2022-08-30T23:54:41.356Z,22.89
2022-08-30T23:57:26.203Z,23.05
